Terminal Aerodrome Forecast
Issued by NWS

Current Version | Previous Version | Graphics & Text | Print | Product List | Glossary On
Versions: 1 2 3 4 5 6 7 8 9 10 11 12 13 14 15 16 17 18 19 20
000
FTUS41 KPBZ 140522
TAFHLG
TAF
KHLG 140522Z 1406/1506 05005KT P6SM OVC150
     FM141300 06003KT P6SM OVC050
     FM141700 VRB03KT 5SM -RA OVC025
     FM142200 31005KT P6SM OVC025=

USA.gov is the U.S. government's official web portal to all federal, state and local government web resources and services.